createdAt,value
2023-03-12T00:00:50.174Z,990.22
2023-03-12T00:01:50.182Z,990.19
2023-03-12T00:02:50.186Z,990.22
2023-03-12T00:03:50.176Z,990.15
2023-03-12T00:04:50.257Z,990.26
2023-03-12T00:05:50.184Z,990.20
2023-03-12T00:06:50.122Z,990.21
2023-03-12T00:07:50.098Z,990.17
2023-03-12T00:08:50.123Z,990.18
2023-03-12T00:09:50.101Z,990.18
2023-03-12T00:10:50.116Z,990.27
2023-03-12T00:11:50.080Z,990.32
2023-03-12T00:12:50.128Z,990.27
2023-03-12T00:13:50.085Z,990.27
2023-03-12T00:14:50.066Z,990.35
2023-03-12T00:15:50.088Z,990.38
2023-03-12T00:16:51.117Z,990.35
2023-03-12T00:17:50.074Z,990.38
2023-03-12T00:18:50.029Z,990.39
2023-03-12T00:19:50.038Z,990.42
2023-03-12T00:20:50.094Z,990.39
2023-03-12T00:21:50.058Z,990.30
2023-03-12T00:22:50.024Z,990.29
2023-03-12T00:23:50.038Z,990.27
2023-03-12T00:24:50.029Z,990.41
2023-03-12T00:25:50.002Z,990.29
2023-03-12T00:26:50.053Z,990.37
2023-03-12T00:27:49.993Z,990.32
2023-03-12T00:28:49.987Z,990.35
2023-03-12T00:29:49.998Z,990.30
2023-03-12T00:30:49.989Z,990.30
2023-03-12T00:31:50.010Z,990.36
2023-03-12T00:32:50.077Z,990.28
2023-03-12T00:33:49.970Z,990.22
2023-03-12T00:34:49.965Z,990.30
2023-03-12T00:35:50.022Z,990.24
2023-03-12T00:36:50.059Z,990.25
2023-03-12T00:37:49.977Z,990.28
2023-03-12T00:38:49.962Z,990.24
2023-03-12T00:39:49.944Z,990.23
2023-03-12T00:40:49.919Z,990.30
2023-03-12T00:41:49.918Z,990.29
2023-03-12T00:42:49.959Z,990.30
2023-03-12T00:43:49.913Z,990.35
2023-03-12T00:44:50.010Z,990.29
2023-03-12T00:45:49.923Z,990.29
2023-03-12T00:46:50.011Z,990.34
2023-03-12T00:47:49.950Z,990.30
2023-03-12T00:48:49.881Z,990.23
2023-03-12T00:49:49.932Z,990.30
2023-03-12T00:50:49.848Z,990.26
2023-03-12T00:51:49.874Z,990.22
2023-03-12T00:52:49.870Z,990.23
2023-03-12T00:53:49.903Z,990.26
2023-03-12T00:54:49.837Z,990.22
2023-03-12T00:55:49.880Z,990.22
2023-03-12T00:56:49.852Z,990.20
2023-03-12T00:57:49.908Z,990.22
2023-03-12T00:58:49.868Z,990.18
2023-03-12T00:59:49.835Z,990.14
2023-03-12T01:00:49.885Z,990.18
2023-03-12T01:01:49.818Z,990.15
2023-03-12T01:02:49.797Z,990.18
2023-03-12T01:03:49.859Z,990.10
2023-03-12T01:04:49.870Z,990.16
2023-03-12T01:05:49.790Z,990.14
2023-03-12T01:06:49.780Z,990.15
2023-03-12T01:07:49.767Z,990.15
2023-03-12T01:08:49.778Z,990.16
2023-03-12T01:09:49.796Z,990.14
2023-03-12T01:10:49.773Z,990.17
2023-03-12T01:11:49.749Z,990.08
2023-03-12T01:12:49.722Z,990.13
2023-03-12T01:13:49.764Z,990.06
2023-03-12T01:14:49.750Z,990.01
2023-03-12T01:15:49.754Z,990.05
2023-03-12T01:16:52.329Z,990.05
2023-03-12T01:17:49.722Z,990.07
2023-03-12T01:18:49.854Z,990.07
2023-03-12T01:19:49.713Z,990.04
2023-03-12T01:20:49.721Z,990.00
2023-03-12T01:21:50.723Z,990.03
2023-03-12T01:22:49.695Z,990.02
2023-03-12T01:23:50.184Z,990.05
2023-03-12T01:24:49.809Z,990.05
2023-03-12T01:25:49.689Z,990.02
2023-03-12T01:26:49.701Z,989.98
2023-03-12T01:27:49.699Z,989.98
2023-03-12T01:28:49.676Z,990.01
2023-03-12T01:29:49.658Z,990.02
2023-03-12T01:30:49.675Z,990.02
2023-03-12T01:31:49.711Z,990.08
2023-03-12T01:32:49.662Z,990.05
2023-03-12T01:33:49.737Z,990.08
2023-03-12T01:34:49.646Z,990.09
2023-03-12T01:35:49.682Z,990.09
2023-03-12T01:36:49.666Z,990.10
2023-03-12T01:37:49.606Z,990.10
2023-03-12T01:38:49.630Z,990.12
2023-03-12T01:39:49.603Z,990.12
2023-03-12T01:40:49.597Z,990.12
2023-03-12T01:41:49.603Z,990.06
2023-03-12T01:42:49.576Z,990.08
2023-03-12T01:43:49.603Z,990.00
2023-03-12T01:44:49.560Z,990.06
2023-03-12T01:45:49.658Z,989.96
2023-03-12T01:46:49.541Z,989.96
2023-03-12T01:47:49.612Z,989.97
2023-03-12T01:48:49.589Z,990.00
2023-03-12T01:49:49.549Z,990.01
2023-03-12T01:50:49.540Z,990.02
2023-03-12T01:51:49.522Z,989.97
2023-03-12T01:52:49.563Z,989.96
2023-03-12T01:53:49.556Z,989.92
2023-03-12T01:54:49.540Z,989.96
2023-03-12T01:55:49.502Z,989.93
2023-03-12T01:56:49.500Z,989.95
2023-03-12T01:57:49.510Z,989.91
2023-03-12T01:58:49.498Z,989.88
2023-03-12T01:59:49.518Z,989.88
2023-03-12T02:00:49.548Z,989.89
2023-03-12T02:01:49.490Z,989.83
2023-03-12T02:02:49.484Z,989.82
2023-03-12T02:03:49.499Z,989.81
2023-03-12T02:04:49.643Z,989.84
2023-03-12T02:05:49.493Z,989.83
2023-03-12T02:06:49.474Z,989.86
2023-03-12T02:07:49.432Z,989.80
2023-03-12T02:08:49.509Z,989.83
2023-03-12T02:09:49.456Z,989.78
2023-03-12T02:10:49.436Z,989.79
2023-03-12T02:11:49.423Z,989.81
2023-03-12T02:12:49.426Z,989.79
2023-03-12T02:13:49.407Z,989.78
2023-03-12T02:14:49.401Z,989.74
2023-03-12T02:15:49.460Z,989.82
2023-03-12T02:16:49.417Z,989.78
2023-03-12T02:17:49.386Z,989.72
2023-03-12T02:18:49.375Z,989.71
2023-03-12T02:19:49.384Z,989.75
2023-03-12T02:20:49.412Z,989.73
2023-03-12T02:21:49.399Z,989.73
2023-03-12T02:22:49.369Z,989.72
2023-03-12T02:23:49.336Z,989.69
2023-03-12T02:24:49.339Z,989.71
2023-03-12T02:25:49.351Z,989.65
2023-03-12T02:26:49.368Z,989.67
2023-03-12T02:27:49.375Z,989.68
2023-03-12T02:28:49.327Z,989.69
2023-03-12T02:29:49.315Z,989.70
2023-03-12T02:30:49.305Z,989.74
2023-03-12T02:31:49.355Z,989.66
2023-03-12T02:32:49.408Z,989.71
2023-03-12T02:33:49.307Z,989.77
2023-03-12T02:34:49.315Z,989.76
2023-03-12T02:35:49.303Z,989.76
2023-03-12T02:36:49.307Z,989.73
2023-03-12T02:37:49.340Z,989.73
2023-03-12T02:38:49.392Z,989.71
2023-03-12T02:39:49.274Z,989.73
2023-03-12T02:40:49.389Z,989.73
2023-03-12T02:41:49.285Z,989.74
2023-03-12T02:42:49.257Z,989.76
2023-03-12T02:43:49.231Z,989.71
2023-03-12T02:44:49.273Z,989.72
2023-03-12T02:45:49.292Z,989.72
2023-03-12T02:46:49.248Z,989.75
2023-03-12T02:47:49.266Z,989.71
2023-03-12T02:48:49.217Z,989.71
2023-03-12T02:49:49.204Z,989.74
2023-03-12T02:50:49.215Z,989.75
2023-03-12T02:51:49.243Z,989.73
2023-03-12T02:52:49.235Z,989.73
2023-03-12T02:53:49.180Z,989.70
2023-03-12T02:54:49.234Z,989.76
2023-03-12T02:55:49.198Z,989.73
2023-03-12T02:56:49.238Z,989.79
2023-03-12T02:57:49.173Z,989.76
2023-03-12T02:58:49.191Z,989.76
2023-03-12T02:59:49.149Z,989.75
2023-03-12T03:00:49.164Z,989.71
2023-03-12T03:01:49.139Z,989.69
2023-03-12T03:02:49.143Z,989.68
2023-03-12T03:03:49.216Z,989.65
2023-03-12T03:04:49.172Z,989.69
2023-03-12T03:05:49.162Z,989.65
2023-03-12T03:06:49.121Z,989.73
2023-03-12T03:07:49.103Z,989.66
2023-03-12T03:08:49.115Z,989.71
2023-03-12T03:09:49.138Z,989.70
2023-03-12T03:10:49.132Z,989.74
2023-03-12T03:11:49.097Z,989.75
2023-03-12T03:12:49.076Z,989.69
2023-03-12T03:13:49.103Z,989.68
2023-03-12T03:14:49.098Z,989.66
2023-03-12T03:15:49.146Z,989.67
2023-03-12T03:16:49.097Z,989.65
2023-03-12T03:17:49.072Z,989.69
2023-03-12T03:18:49.061Z,989.72
2023-03-12T03:19:50.033Z,989.70
2023-03-12T03:20:49.092Z,989.69
2023-03-12T03:21:49.054Z,989.75
2023-03-12T03:22:49.021Z,989.75
2023-03-12T03:23:49.052Z,989.68
2023-03-12T03:24:49.168Z,989.64
2023-03-12T03:25:49.058Z,989.67
2023-03-12T03:26:49.032Z,989.66
2023-03-12T03:27:48.996Z,989.59
2023-03-12T03:28:49.015Z,989.59
2023-03-12T03:29:49.737Z,989.63
2023-03-12T03:30:49.023Z,989.65
2023-03-12T03:31:49.012Z,989.65
2023-03-12T03:32:49.139Z,989.72
2023-03-12T03:33:48.999Z,989.63
2023-03-12T03:34:48.942Z,989.67
2023-03-12T03:35:49.056Z,989.73
2023-03-12T03:36:49.021Z,989.70
2023-03-12T03:37:48.944Z,989.67
2023-03-12T03:38:48.962Z,989.66
2023-03-12T03:39:48.934Z,989.65
2023-03-12T03:40:48.968Z,989.53
2023-03-12T03:41:48.980Z,989.58
2023-03-12T03:42:48.911Z,989.61
2023-03-12T03:43:48.912Z,989.55
2023-03-12T03:44:48.929Z,989.58
2023-03-12T03:45:48.970Z,989.56
2023-03-12T03:46:48.881Z,989.58
2023-03-12T03:47:48.914Z,989.57
2023-03-12T03:48:48.878Z,989.59
2023-03-12T03:49:48.899Z,989.65
2023-03-12T03:50:48.894Z,989.55
2023-03-12T03:51:48.891Z,989.56
2023-03-12T03:52:48.872Z,989.52
2023-03-12T03:53:48.864Z,989.51
2023-03-12T03:54:48.870Z,989.53
2023-03-12T03:55:48.861Z,989.54
2023-03-12T03:56:48.847Z,989.64
2023-03-12T03:57:48.862Z,989.65
2023-03-12T03:58:48.862Z,989.58
2023-03-12T03:59:48.875Z,989.56
2023-03-12T04:00:48.840Z,989.53
2023-03-12T04:01:48.835Z,989.54
2023-03-12T04:02:48.796Z,989.49
2023-03-12T04:03:48.798Z,989.52
2023-03-12T04:04:48.807Z,989.57
2023-03-12T04:05:48.841Z,989.60
2023-03-12T04:06:48.804Z,989.59
2023-03-12T04:07:48.780Z,989.59
2023-03-12T04:08:48.866Z,989.64
2023-03-12T04:09:48.773Z,989.62
2023-03-12T04:10:48.790Z,989.60
2023-03-12T04:11:48.767Z,989.59
2023-03-12T04:12:48.762Z,989.63
2023-03-12T04:13:48.765Z,989.58
2023-03-12T04:14:48.754Z,989.57
2023-03-12T04:15:48.787Z,989.58
2023-03-12T04:16:48.732Z,989.60
2023-03-12T04:17:48.781Z,989.56
2023-03-12T04:18:48.713Z,989.61
2023-03-12T04:19:48.758Z,989.53
2023-03-12T04:20:48.761Z,989.50
2023-03-12T04:21:48.749Z,989.46
2023-03-12T04:22:48.716Z,989.47
2023-03-12T04:23:48.758Z,989.48
2023-03-12T04:24:48.670Z,989.52
2023-03-12T04:25:49.712Z,989.47
2023-03-12T04:26:48.713Z,989.50
2023-03-12T04:27:48.675Z,989.47
2023-03-12T04:28:48.668Z,989.46
2023-03-12T04:29:48.672Z,989.47
2023-03-12T04:30:48.658Z,989.45
2023-03-12T04:31:48.758Z,989.49
2023-03-12T04:32:48.671Z,989.43
2023-03-12T04:33:48.607Z,989.45
2023-03-12T04:34:48.611Z,989.50
2023-03-12T04:35:48.703Z,989.46
2023-03-12T04:36:48.681Z,989.48
2023-03-12T04:37:48.648Z,989.45
2023-03-12T04:38:48.624Z,989.50
2023-03-12T04:39:48.586Z,989.50
2023-03-12T04:40:48.618Z,989.51
2023-03-12T04:41:48.613Z,989.47
2023-03-12T04:42:48.620Z,989.42
2023-03-12T04:43:48.595Z,989.41
2023-03-12T04:44:48.582Z,989.23
2023-03-12T04:45:48.586Z,989.21
2023-03-12T04:46:48.599Z,989.38
2023-03-12T04:47:48.654Z,989.35
2023-03-12T04:48:48.588Z,989.33
2023-03-12T04:49:48.566Z,989.24
2023-03-12T04:50:48.566Z,989.31
2023-03-12T04:51:48.579Z,989.28
2023-03-12T04:52:48.582Z,989.34
2023-03-12T04:53:48.582Z,989.34
2023-03-12T04:54:48.537Z,989.28
2023-03-12T04:55:48.570Z,989.25
2023-03-12T04:56:48.512Z,989.21
2023-03-12T04:57:48.510Z,989.16
2023-03-12T04:58:48.510Z,989.20
2023-03-12T04:59:48.511Z,989.12
2023-03-12T05:00:48.569Z,989.15
2023-03-12T05:01:48.500Z,989.15
2023-03-12T05:02:48.541Z,989.11
2023-03-12T05:03:48.564Z,989.07
2023-03-12T05:04:48.469Z,989.14
2023-03-12T05:05:48.489Z,989.09
2023-03-12T05:06:48.469Z,989.17
2023-03-12T05:07:48.458Z,989.20
2023-03-12T05:08:48.441Z,989.19
2023-03-12T05:09:48.452Z,989.21
2023-03-12T05:10:48.474Z,989.24
2023-03-12T05:11:48.471Z,989.24
2023-03-12T05:12:48.442Z,989.20
2023-03-12T05:13:48.430Z,989.21
2023-03-12T05:14:48.432Z,989.23
2023-03-12T05:15:48.434Z,989.28
2023-03-12T05:16:48.403Z,989.22
2023-03-12T05:17:48.405Z,989.13
2023-03-12T05:18:48.430Z,989.10
2023-03-12T05:19:48.514Z,989.18
2023-03-12T05:20:48.379Z,989.18
2023-03-12T05:21:48.419Z,989.16
2023-03-12T05:22:48.406Z,989.15
2023-03-12T05:23:48.385Z,989.03
2023-03-12T05:24:48.370Z,989.11
2023-03-12T05:25:48.385Z,989.14
2023-03-12T05:26:48.385Z,989.04
2023-03-12T05:27:48.378Z,989.09
2023-03-12T05:28:48.345Z,989.08
2023-03-12T05:29:48.341Z,989.16
2023-03-12T05:30:48.324Z,989.14
2023-03-12T05:31:48.383Z,989.12
2023-03-12T05:32:48.404Z,989.14
2023-03-12T05:33:48.656Z,989.01
2023-03-12T05:34:48.347Z,988.95
2023-03-12T05:35:48.352Z,988.92
2023-03-12T05:36:48.290Z,988.90
2023-03-12T05:37:48.339Z,988.93
2023-03-12T05:38:48.297Z,988.89
2023-03-12T05:39:48.290Z,988.92
2023-03-12T05:40:48.301Z,988.89
2023-03-12T05:41:48.351Z,988.96
2023-03-12T05:42:48.279Z,988.90
2023-03-12T05:43:48.289Z,989.02
2023-03-12T05:44:48.314Z,988.87
2023-03-12T05:45:48.339Z,989.01
2023-03-12T05:46:48.289Z,989.01
2023-03-12T05:47:48.246Z,989.02
2023-03-12T05:48:48.273Z,988.98
2023-03-12T05:49:48.215Z,988.99
2023-03-12T05:50:48.234Z,989.05
2023-03-12T05:51:48.219Z,989.00
2023-03-12T05:52:48.257Z,989.01
2023-03-12T05:53:48.230Z,988.99
2023-03-12T05:54:48.239Z,988.97
2023-03-12T05:55:48.196Z,988.90
2023-03-12T05:56:48.193Z,988.98
2023-03-12T05:57:48.205Z,988.93
2023-03-12T05:58:48.221Z,988.88
2023-03-12T05:59:48.225Z,988.79
2023-03-12T06:00:48.179Z,988.77
2023-03-12T06:01:48.225Z,988.77
2023-03-12T06:02:48.150Z,988.78
2023-03-12T06:03:48.225Z,988.80
2023-03-12T06:04:48.193Z,988.81
2023-03-12T06:05:48.144Z,988.79
2023-03-12T06:06:48.146Z,988.79
2023-03-12T06:07:48.160Z,988.78
2023-03-12T06:08:48.130Z,988.82
2023-03-12T06:09:48.132Z,988.85
2023-03-12T06:10:48.115Z,988.78
2023-03-12T06:11:48.128Z,988.80
2023-03-12T06:12:48.091Z,988.76
2023-03-12T06:13:48.086Z,988.77
2023-03-12T06:14:48.134Z,988.73
2023-03-12T06:15:48.103Z,988.75
2023-03-12T06:16:48.132Z,988.80
2023-03-12T06:17:48.078Z,988.75
2023-03-12T06:18:48.105Z,988.77
2023-03-12T06:19:48.059Z,988.76
2023-03-12T06:20:48.076Z,988.76
2023-03-12T06:21:48.058Z,988.82
2023-03-12T06:22:48.042Z,988.79
2023-03-12T06:23:48.084Z,988.86
2023-03-12T06:24:48.057Z,988.85
2023-03-12T06:25:48.087Z,988.87
2023-03-12T06:26:48.042Z,988.87
2023-03-12T06:27:47.996Z,988.90
2023-03-12T06:28:48.003Z,988.93
2023-03-12T06:29:47.994Z,988.96
2023-03-12T06:30:47.993Z,989.02
2023-03-12T06:31:48.034Z,988.97
2023-03-12T06:32:48.050Z,988.94
2023-03-12T06:33:47.995Z,988.92
2023-03-12T06:34:47.992Z,988.96
2023-03-12T06:35:47.995Z,988.94
2023-03-12T06:36:47.975Z,988.96
2023-03-12T06:37:47.960Z,988.96
2023-03-12T06:38:47.990Z,989.01
2023-03-12T06:39:47.946Z,988.89
2023-03-12T06:40:47.936Z,988.92
2023-03-12T06:41:47.955Z,988.90
2023-03-12T06:42:47.979Z,988.94
2023-03-12T06:43:47.906Z,988.93
2023-03-12T06:44:47.959Z,988.86
2023-03-12T06:45:48.121Z,988.86
2023-03-12T06:46:48.036Z,988.88
2023-03-12T06:47:47.966Z,988.88
2023-03-12T06:48:47.909Z,988.85
2023-03-12T06:49:47.898Z,988.84
2023-03-12T06:50:47.882Z,988.79
2023-03-12T06:51:47.873Z,988.82
2023-03-12T06:52:47.872Z,988.75
2023-03-12T06:53:47.893Z,988.76
2023-03-12T06:54:47.856Z,988.80
2023-03-12T06:55:47.861Z,988.77
2023-03-12T06:56:47.908Z,988.73
2023-03-12T06:57:47.843Z,988.71
2023-03-12T06:58:47.875Z,988.69
2023-03-12T06:59:50.435Z,988.70
2023-03-12T07:00:48.838Z,988.66
2023-03-12T07:01:47.838Z,988.65
2023-03-12T07:02:47.867Z,988.65
2023-03-12T07:03:47.797Z,988.61
2023-03-12T07:04:47.841Z,988.65
2023-03-12T07:05:47.805Z,988.65
2023-03-12T07:06:47.827Z,988.58
2023-03-12T07:07:47.793Z,988.50
2023-03-12T07:08:47.780Z,988.55
2023-03-12T07:09:47.788Z,988.54
2023-03-12T07:10:47.778Z,988.52
2023-03-12T07:11:47.781Z,988.50
2023-03-12T07:12:47.751Z,988.46
2023-03-12T07:13:47.745Z,988.52
2023-03-12T07:14:47.734Z,988.52
2023-03-12T07:15:47.812Z,988.47
2023-03-12T07:16:47.799Z,988.52
2023-03-12T07:17:47.732Z,988.47
2023-03-12T07:18:47.748Z,988.54
2023-03-12T07:19:49.721Z,988.48
2023-03-12T07:20:48.721Z,988.53
2023-03-12T07:21:47.745Z,988.45
2023-03-12T07:22:47.698Z,988.40
2023-03-12T07:23:47.706Z,988.39
2023-03-12T07:24:47.687Z,988.45
2023-03-12T07:25:47.689Z,988.38
2023-03-12T07:26:47.705Z,988.37
2023-03-12T07:27:47.666Z,988.36
2023-03-12T07:28:47.684Z,988.37
2023-03-12T07:29:47.649Z,988.32
2023-03-12T07:30:47.707Z,988.22
2023-03-12T07:31:47.680Z,988.17
2023-03-12T07:32:47.803Z,988.15
2023-03-12T07:33:47.758Z,988.16
2023-03-12T07:34:47.641Z,988.17
2023-03-12T07:35:50.092Z,988.19
2023-03-12T07:36:47.724Z,988.27
2023-03-12T07:37:47.710Z,988.16
2023-03-12T07:38:47.617Z,988.25
2023-03-12T07:39:47.619Z,988.22
2023-03-12T07:40:47.896Z,988.26
2023-03-12T07:41:47.888Z,988.25
2023-03-12T07:42:48.078Z,988.29
2023-03-12T07:43:47.689Z,988.33
2023-03-12T07:44:47.566Z,988.31
2023-03-12T07:45:48.568Z,988.32
2023-03-12T07:46:47.641Z,988.36
2023-03-12T07:47:47.779Z,988.34
2023-03-12T07:48:47.591Z,988.26
2023-03-12T07:49:47.603Z,988.30
2023-03-12T07:50:47.599Z,988.27
2023-03-12T07:51:47.573Z,988.28
2023-03-12T07:52:48.047Z,988.30
2023-03-12T07:53:47.799Z,988.29
2023-03-12T07:54:47.919Z,988.24
2023-03-12T07:55:48.014Z,988.27
2023-03-12T07:56:48.113Z,988.30
2023-03-12T07:57:47.570Z,988.33
2023-03-12T07:58:47.593Z,988.30
2023-03-12T07:59:48.142Z,988.32
2023-03-12T08:00:47.852Z,988.39
2023-03-12T08:01:47.535Z,988.40
2023-03-12T08:02:47.942Z,988.34
2023-03-12T08:03:47.677Z,988.39
2023-03-12T08:04:47.511Z,988.31
2023-03-12T08:05:47.683Z,988.35
2023-03-12T08:06:47.488Z,988.22
2023-03-12T08:07:47.742Z,988.19
2023-03-12T08:08:47.973Z,988.19
2023-03-12T08:09:48.493Z,988.17
2023-03-12T08:10:47.432Z,988.17
2023-03-12T08:11:47.474Z,988.12
2023-03-12T08:12:47.861Z,988.19
2023-03-12T08:13:47.456Z,988.14
2023-03-12T08:14:47.797Z,988.14
2023-03-12T08:15:47.524Z,988.20
2023-03-12T08:16:47.746Z,988.26
2023-03-12T08:17:47.708Z,988.28
2023-03-12T08:18:47.857Z,988.27
2023-03-12T08:19:47.371Z,988.21
2023-03-12T08:20:47.396Z,988.28
2023-03-12T08:21:47.368Z,988.18
2023-03-12T08:22:47.356Z,988.17
2023-03-12T08:23:47.488Z,988.21
2023-03-12T08:24:47.675Z,988.15
2023-03-12T08:25:48.362Z,988.12
2023-03-12T08:26:47.309Z,988.11
2023-03-12T08:27:47.342Z,988.11
2023-03-12T08:28:47.319Z,988.13
2023-03-12T08:29:47.307Z,988.08
2023-03-12T08:30:47.293Z,988.00
2023-03-12T08:32:03.485Z,988.04
2023-03-12T08:32:49.376Z,988.05
2023-03-12T08:33:47.263Z,988.07
2023-03-12T08:34:47.300Z,988.08
2023-03-12T08:35:47.294Z,988.07
2023-03-12T08:36:47.301Z,988.12
2023-03-12T08:37:47.275Z,988.11
2023-03-12T08:38:47.308Z,988.07
2023-03-12T08:39:47.258Z,988.07
2023-03-12T08:40:47.257Z,988.02
2023-03-12T08:41:47.267Z,987.98
2023-03-12T08:42:47.228Z,987.96
2023-03-12T08:43:47.265Z,987.94
2023-03-12T08:44:47.245Z,987.98
2023-03-12T08:45:47.267Z,987.98
2023-03-12T08:46:47.205Z,987.98
2023-03-12T08:47:47.219Z,987.94
2023-03-12T08:48:47.204Z,987.96
2023-03-12T08:49:48.185Z,987.94
2023-03-12T08:50:47.179Z,987.90
2023-03-12T08:51:47.182Z,987.92
2023-03-12T08:52:47.236Z,987.93
2023-03-12T08:53:47.277Z,987.94
2023-03-12T08:54:47.172Z,987.86
2023-03-12T08:55:47.162Z,987.90
2023-03-12T08:56:47.154Z,987.94
2023-03-12T08:57:47.154Z,987.87
2023-03-12T08:58:47.176Z,987.92
2023-03-12T08:59:47.148Z,987.88
2023-03-12T09:00:47.144Z,987.86
2023-03-12T09:01:47.136Z,987.94
2023-03-12T09:02:47.176Z,987.88
2023-03-12T09:03:47.134Z,987.86
2023-03-12T09:04:47.197Z,987.90
2023-03-12T09:05:47.126Z,987.85
2023-03-12T09:06:47.106Z,987.80
2023-03-12T09:07:47.129Z,987.82
2023-03-12T09:08:47.066Z,987.94
2023-03-12T09:09:47.110Z,987.84
2023-03-12T09:10:47.095Z,987.83
2023-03-12T09:11:47.061Z,987.85
2023-03-12T09:12:47.059Z,987.83
2023-03-12T09:15:05.214Z,987.92
2023-03-12T09:15:49.072Z,987.82
2023-03-12T09:16:47.105Z,987.87
2023-03-12T09:17:47.023Z,987.83
2023-03-12T09:18:47.053Z,987.89
2023-03-12T09:19:47.007Z,987.89
2023-03-12T09:20:46.995Z,987.93
2023-03-12T09:21:47.016Z,987.85
2023-03-12T09:22:47.011Z,987.90
2023-03-12T09:23:46.969Z,987.86
2023-03-12T09:24:46.947Z,987.86
2023-03-12T09:25:46.973Z,987.80
2023-03-12T09:26:46.969Z,987.83
2023-03-12T09:27:46.968Z,987.77
2023-03-12T09:28:46.972Z,987.79
2023-03-12T09:29:59.576Z,987.75
2023-03-12T09:30:48.968Z,987.78
2023-03-12T09:31:46.936Z,987.86
2023-03-12T09:32:47.014Z,987.76
2023-03-12T09:33:46.920Z,987.82
2023-03-12T09:34:46.924Z,987.77
2023-03-12T09:35:46.892Z,987.79
2023-03-12T09:36:46.910Z,987.69
2023-03-12T09:37:46.935Z,987.64
2023-03-12T09:38:46.919Z,987.64
2023-03-12T09:39:46.857Z,987.66
2023-03-12T09:40:46.895Z,987.59
2023-03-12T09:41:46.839Z,987.60
2023-03-12T09:42:47.609Z,987.66
2023-03-12T09:43:47.890Z,987.57
2023-03-12T09:44:46.845Z,987.59
2023-03-12T09:45:46.883Z,987.63
2023-03-12T09:46:46.822Z,987.62
2023-03-12T09:47:46.803Z,987.58
2023-03-12T09:48:47.696Z,987.60
2023-03-12T09:49:47.813Z,987.60
2023-03-12T09:50:46.789Z,987.65
2023-03-12T09:51:46.800Z,987.62
2023-03-12T09:52:46.771Z,987.57
2023-03-12T09:53:46.820Z,987.61
2023-03-12T09:54:47.621Z,987.53
2023-03-12T09:55:47.773Z,987.59
2023-03-12T09:56:46.753Z,987.58
2023-03-12T09:57:47.757Z,987.58
2023-03-12T09:58:46.738Z,987.50
2023-03-12T09:59:46.767Z,987.58
2023-03-12T10:00:47.673Z,987.54
2023-03-12T10:01:47.735Z,987.50
2023-03-12T10:02:46.717Z,987.46
2023-03-12T10:03:46.698Z,987.47
2023-03-12T10:04:58.914Z,987.49
2023-03-12T10:05:48.797Z,987.47
2023-03-12T10:06:47.319Z,987.43
2023-03-12T10:07:47.701Z,987.45
2023-03-12T10:08:46.681Z,987.44
2023-03-12T10:09:46.691Z,987.41
2023-03-12T10:10:46.702Z,987.39
2023-03-12T10:11:46.667Z,987.43
2023-03-12T10:12:47.654Z,987.35
2023-03-12T10:13:47.651Z,987.41
2023-03-12T10:14:46.631Z,987.37
2023-03-12T10:15:46.733Z,987.41
2023-03-12T10:16:46.649Z,987.38
2023-03-12T10:17:46.762Z,987.42
2023-03-12T10:18:48.399Z,987.49
2023-03-12T10:19:47.636Z,987.48
2023-03-12T10:20:46.622Z,987.41
2023-03-12T10:21:46.612Z,987.41
2023-03-12T10:22:46.601Z,987.42
2023-03-12T10:23:46.578Z,987.34
2023-03-12T10:24:46.567Z,987.37
2023-03-12T10:25:46.716Z,987.36
2023-03-12T10:26:46.572Z,987.34
2023-03-12T10:27:46.557Z,987.34
2023-03-12T10:28:46.584Z,987.41
2023-03-12T10:29:46.622Z,987.43
2023-03-12T10:30:46.586Z,987.41
2023-03-12T10:31:47.704Z,987.43
2023-03-12T10:32:46.595Z,987.35
2023-03-12T10:33:46.544Z,987.37
2023-03-12T10:34:46.522Z,987.39
2023-03-12T10:35:46.549Z,987.37
2023-03-12T10:36:46.535Z,987.30
2023-03-12T10:37:46.566Z,987.32
2023-03-12T10:38:46.475Z,987.32
2023-03-12T10:39:46.493Z,987.33
2023-03-12T10:40:46.482Z,987.35
2023-03-12T10:41:46.462Z,987.25
2023-03-12T10:42:46.448Z,987.32
2023-03-12T10:43:46.447Z,987.31
2023-03-12T10:44:47.441Z,987.31
2023-03-12T10:45:46.476Z,987.33
2023-03-12T10:46:46.487Z,987.38
2023-03-12T10:47:46.429Z,987.35
2023-03-12T10:48:46.405Z,987.30
2023-03-12T10:49:46.471Z,987.32
2023-03-12T10:50:46.434Z,987.35
2023-03-12T10:51:46.391Z,987.38
2023-03-12T10:52:46.396Z,987.38
2023-03-12T10:53:46.430Z,987.35
2023-03-12T10:54:46.399Z,987.39
2023-03-12T10:55:46.361Z,987.39
2023-03-12T10:56:46.359Z,987.31
2023-03-12T10:57:46.357Z,987.40
2023-03-12T10:58:46.392Z,987.34
2023-03-12T10:59:46.374Z,987.28
2023-03-12T11:00:47.350Z,987.33
2023-03-12T11:01:46.454Z,987.30
2023-03-12T11:02:46.362Z,987.22
2023-03-12T11:03:46.312Z,987.27
2023-03-12T11:04:46.370Z,987.29
2023-03-12T11:05:46.362Z,987.24
2023-03-12T11:06:46.298Z,987.27
2023-03-12T11:07:46.307Z,987.32
2023-03-12T11:08:46.283Z,987.36
2023-03-12T11:09:46.364Z,987.31
2023-03-12T11:10:46.304Z,987.30
2023-03-12T11:11:46.299Z,987.28
2023-03-12T11:12:46.318Z,987.24
2023-03-12T11:13:46.291Z,987.24
2023-03-12T11:14:46.265Z,987.25
2023-03-12T11:15:46.274Z,987.26
2023-03-12T11:16:46.254Z,987.28
2023-03-12T11:17:46.236Z,987.21
2023-03-12T11:18:46.303Z,987.23
2023-03-12T11:19:46.266Z,987.29
2023-03-12T11:20:46.331Z,987.27
2023-03-12T11:21:46.279Z,987.30
2023-03-12T11:22:46.211Z,987.36
2023-03-12T11:23:46.244Z,987.29
2023-03-12T11:24:46.180Z,987.27
2023-03-12T11:25:46.206Z,987.29
2023-03-12T11:26:46.162Z,987.25
2023-03-12T11:27:46.209Z,987.26
2023-03-12T11:28:46.196Z,987.32
2023-03-12T11:29:46.157Z,987.31
2023-03-12T11:30:46.175Z,987.41
2023-03-12T11:31:47.284Z,987.30
2023-03-12T11:32:47.182Z,987.32
2023-03-12T11:33:46.158Z,987.23
2023-03-12T11:34:46.187Z,987.32
2023-03-12T11:35:46.171Z,987.26
2023-03-12T11:36:46.175Z,987.16
2023-03-12T11:37:46.246Z,987.24
2023-03-12T11:38:46.104Z,987.17
2023-03-12T11:39:46.223Z,987.17
2023-03-12T11:40:46.109Z,987.05
2023-03-12T11:41:46.125Z,986.98
2023-03-12T11:42:46.060Z,987.03
2023-03-12T11:43:46.059Z,987.03
2023-03-12T11:44:46.085Z,986.99
2023-03-12T11:45:46.108Z,986.99
2023-03-12T11:46:46.126Z,986.93
2023-03-12T11:47:46.091Z,986.95
2023-03-12T11:48:46.119Z,987.01
2023-03-12T11:49:47.917Z,986.99
2023-03-12T11:50:46.030Z,987.05
2023-03-12T11:51:46.002Z,987.04
2023-03-12T11:52:46.039Z,987.04
2023-03-12T11:53:46.017Z,987.11
2023-03-12T11:54:45.995Z,987.07
2023-03-12T11:55:45.983Z,987.11
2023-03-12T11:56:45.965Z,987.13
2023-03-12T11:57:46.012Z,987.16
2023-03-12T11:58:45.981Z,987.11
2023-03-12T11:59:45.968Z,987.08
2023-03-12T12:00:47.842Z,987.11
2023-03-12T12:01:47.018Z,987.02
2023-03-12T12:02:45.954Z,987.08
2023-03-12T12:03:45.954Z,987.07
2023-03-12T12:04:45.973Z,987.06
2023-03-12T12:05:45.923Z,987.05
2023-03-12T12:06:47.643Z,986.98
2023-03-12T12:07:46.926Z,986.99
2023-03-12T12:08:45.948Z,986.88
2023-03-12T12:09:45.978Z,986.94
2023-03-12T12:10:45.883Z,986.86
2023-03-12T12:11:45.872Z,986.89
2023-03-12T12:12:45.923Z,986.94
2023-03-12T12:13:45.863Z,987.02
2023-03-12T12:14:45.883Z,987.00
2023-03-12T12:15:45.873Z,987.05
2023-03-12T12:16:45.853Z,986.98
2023-03-12T12:17:45.873Z,987.03
2023-03-12T12:18:45.893Z,986.98
2023-03-12T12:19:45.832Z,987.00
2023-03-12T12:20:45.815Z,986.97
2023-03-12T12:21:45.821Z,987.06
2023-03-12T12:22:45.826Z,986.95
2023-03-12T12:23:45.826Z,987.06
2023-03-12T12:24:45.794Z,986.99
2023-03-12T12:25:45.784Z,986.95
2023-03-12T12:26:45.781Z,986.94
2023-03-12T12:27:45.781Z,986.85
2023-03-12T12:28:45.763Z,986.86
2023-03-12T12:29:45.825Z,986.87